アムステルダム/スキポール の空港の天気 - METARとTAF

スキポール空港(アムステルダム) ( EHAM / AMS ) - オランダ アムステルダム
飛行場実況気象(Metar)
観測時間09/23 12:55 CEST (09/23 10:55 UTC)
風向・風速南東 2m/s
視程10km以上
天気現象
少しの雲 雲底高度 760m
気温17℃
湿度63%
気圧1024hPa
METAREHAM 231055Z 14003KT 9999 FEW025 17/10 Q1024 NOSIG
過去の天気等 Google飛行場航空写真 Wunderground天気予報

過去48時間のMETAR

飛行場予報(TAF)
発表時間: 9/23 07:20 CEST (9/23 05:20 UTC)
予報対象時間: 23日8時 CEST ~ 24日14時 CEST
風向・風速南東 2m/s
視程10km以上
少しの雲 雲底高度 760m
23日8時 CEST ~ 23日9時 CEST に 確率 30% で一時的に
視程1,000m
天気現象散在した霧
23日23時 CEST ~ 24日2時 CEST に徐々に
風向・風速東 2m/s
視程7,000m
天気現象地霧
24日2時 CEST ~ 24日5時 CEST に徐々に
視程2,500m
天気現象散在した霧
24日2時 CEST ~ 24日10時 CEST に一時的に
視程400m
天気現象
24日6時 CEST ~ 24日10時 CEST に 確率 30% で一時的に
全天の8割程度の雲 雲底高度 30m
24日10時 CEST ~ 24日12時 CEST に徐々に
視程10km以上
なし
TAF EHAM 230520Z 2306/2412 14003KT 9999 FEW025
PROB30 TEMPO 2306/2307 1000 BCFG
BECMG 2321/2324 08004KT 7000 MIFG
BECMG 2400/2403 2500 BCFG
TEMPO 2400/2408 0400 FG
PROB30 TEMPO 2404/2408 BKN001
BECMG 2408/2410 CAVOK